Terminal Aerodrome Forecast
Issued by NWS

Home | Current Version | Previous Version | Text Only | Print | Product List | Glossary Off
Versions: 1 2 3 4 5 6 7 8 9 10 11 12 13 14 15 16 17 18

000
FTUS43 KMPX 041122
TAFAXN
TAF
KAXN 041122Z 0412/0512 29010KT P6SM FEW030
     FM041400 31015G22KT P6SM SCT030
     FM050100 30007KT P6SM SKC
     FM050700 27004KT P6SM SKC=

USA.gov is the U.S. government's official web portal to all federal, state and local government web resources and services.